sensor_id;sensor_type;location;lat;lon;timestamp;pressure;altitude;pressure_sealevel;temperature;humidity
9695;BME280;4690;52.422;13.486;2024-03-07T00:08:07;102339.97;;;7.64;96.21
9695;BME280;4690;52.422;13.486;2024-03-07T00:10:32;102346.25;;;7.64;96.88
9695;BME280;4690;52.422;13.486;2024-03-07T00:13:01;102341.00;;;7.79;96.03
9695;BME280;4690;52.422;13.486;2024-03-07T00:15:28;102337.25;;;7.72;96.03
9695;BME280;4690;52.422;13.486;2024-03-07T00:17:55;102345.44;;;7.72;96.10
9695;BME280;4690;52.422;13.486;2024-03-07T00:20:21;102337.75;;;7.76;95.77
9695;BME280;4690;52.422;13.486;2024-03-07T00:22:47;102339.97;;;7.80;95.72
9695;BME280;4690;52.422;13.486;2024-03-07T00:25:13;102346.78;;;7.84;95.57
9695;BME280;4690;52.422;13.486;2024-03-07T00:27:40;102335.53;;;7.79;94.98
9695;BME280;4690;52.422;13.486;2024-03-07T00:30:06;102341.69;;;7.81;95.34
9695;BME280;4690;52.422;13.486;2024-03-07T00:32:34;102334.53;;;7.89;94.80
9695;BME280;4690;52.422;13.486;2024-03-07T00:35:08;102338.94;;;7.81;94.73
9695;BME280;4690;52.422;13.486;2024-03-07T00:37:36;102345.59;;;7.87;94.82
9695;BME280;4690;52.422;13.486;2024-03-07T00:40:03;102336.38;;;7.88;94.25
9695;BME280;4690;52.422;13.486;2024-03-07T00:42:29;102344.91;;;7.93;94.09
9695;BME280;4690;52.422;13.486;2024-03-07T00:44:54;102340.34;;;7.85;93.97
9695;BME280;4690;52.422;13.486;2024-03-07T00:47:20;102341.53;;;7.83;93.95
9695;BME280;4690;52.422;13.486;2024-03-07T00:49:46;102344.59;;;7.80;94.39
9695;BME280;4690;52.422;13.486;2024-03-07T00:52:15;102338.94;;;7.81;94.22
9695;BME280;4690;52.422;13.486;2024-03-07T00:54:42;102333.50;;;7.81;94.40
9695;BME280;4690;52.422;13.486;2024-03-07T00:57:08;102330.41;;;7.76;94.12
9695;BME280;4690;52.422;13.486;2024-03-07T00:59:34;102337.25;;;7.80;94.00
9695;BME280;4690;52.422;13.486;2024-03-07T01:02:00;102338.44;;;7.78;93.72
9695;BME280;4690;52.422;13.486;2024-03-07T01:04:26;102325.66;;;7.86;93.79
9695;BME280;4690;52.422;13.486;2024-03-07T01:07:01;102338.47;;;7.94;93.34
9695;BME280;4690;52.422;13.486;2024-03-07T01:09:27;102330.28;;;7.86;93.07
9695;BME280;4690;52.422;13.486;2024-03-07T01:11:54;102335.19;;;7.66;93.99
9695;BME280;4690;52.422;13.486;2024-03-07T01:14:21;102333.66;;;7.72;94.19
9695;BME280;4690;52.422;13.486;2024-03-07T01:16:48;102330.75;;;7.73;94.10
9695;BME280;4690;52.422;13.486;2024-03-07T01:19:13;102324.09;;;7.68;94.20
9695;BME280;4690;52.422;13.486;2024-03-07T01:21:40;102335.00;;;7.68;93.88
9695;BME280;4690;52.422;13.486;2024-03-07T01:24:06;102334.84;;;7.61;94.55
9695;BME280;4690;52.422;13.486;2024-03-07T01:26:32;102330.41;;;7.76;93.88
9695;BME280;4690;52.422;13.486;2024-03-07T01:28:59;102334.00;;;7.69;93.50
9695;BME280;4690;52.422;13.486;2024-03-07T01:31:25;102332.78;;;7.71;93.47
9695;BME280;4690;52.422;13.486;2024-03-07T01:33:51;102335.00;;;7.68;93.20
9695;BME280;4690;52.422;13.486;2024-03-07T01:36:19;102329.41;;;7.69;93.28
9695;BME280;4690;52.422;13.486;2024-03-07T01:38:46;102331.09;;;7.70;92.98
9695;BME280;4690;52.422;13.486;2024-03-07T01:41:12;102334.09;;;7.43;94.42
9695;BME280;4690;52.422;13.486;2024-03-07T01:43:37;102337.88;;;7.41;94.15
9695;BME280;4690;52.422;13.486;2024-03-07T01:46:03;102345.16;;;7.25;94.54
9695;BME280;4690;52.422;13.486;2024-03-07T01:48:31;102337.81;;;7.25;94.59
9695;BME280;4690;52.422;13.486;2024-03-07T01:51:01;102342.09;;;7.28;93.96
9695;BME280;4690;52.422;13.486;2024-03-07T01:53:30;102342.41;;;7.16;93.12
9695;BME280;4690;52.422;13.486;2024-03-07T01:55:57;102340.66;;;7.07;93.93
9695;BME280;4690;52.422;13.486;2024-03-07T01:58:24;102339.81;;;7.07;93.81
9695;BME280;4690;52.422;13.486;2024-03-07T02:00:50;102329.25;;;7.12;93.82
9695;BME280;4690;52.422;13.486;2024-03-07T02:03:17;102328.59;;;7.26;93.20
9695;BME280;4690;52.422;13.486;2024-03-07T02:05:43;102329.63;;;7.25;93.02
9695;BME280;4690;52.422;13.486;2024-03-07T02:08:09;102333.53;;;7.23;92.42
9695;BME280;4690;52.422;13.486;2024-03-07T02:10:35;102326.72;;;7.18;92.79
9695;BME280;4690;52.422;13.486;2024-03-07T02:13:00;102333.00;;;7.11;92.80
9695;BME280;4690;52.422;13.486;2024-03-07T02:15:27;102328.41;;;7.11;92.96
9695;BME280;4690;52.422;13.486;2024-03-07T02:17:53;102329.22;;;7.04;92.71
9695;BME280;4690;52.422;13.486;2024-03-07T02:20:19;102327.00;;;6.99;92.87
9695;BME280;4690;52.422;13.486;2024-03-07T02:22:44;102321.34;;;6.92;93.34
9695;BME280;4690;52.422;13.486;2024-03-07T02:25:11;102321.50;;;6.91;93.45
9695;BME280;4690;52.422;13.486;2024-03-07T02:27:37;102314.03;;;6.93;93.33
9695;BME280;4690;52.422;13.486;2024-03-07T02:30:04;102323.44;;;6.99;92.84
9695;BME280;4690;52.422;13.486;2024-03-07T02:32:35;102324.06;;;6.84;93.38
9695;BME280;4690;52.422;13.486;2024-03-07T02:35:03;102315.84;;;6.76;94.13
9695;BME280;4690;52.422;13.486;2024-03-07T02:37:29;102316.53;;;6.86;93.79
9695;BME280;4690;52.422;13.486;2024-03-07T02:39:55;102313.59;;;6.71;94.70
9695;BME280;4690;52.422;13.486;2024-03-07T02:42:21;102312.75;;;6.71;94.49
9695;BME280;4690;52.422;13.486;2024-03-07T02:44:47;102315.84;;;6.76;94.22
9695;BME280;4690;52.422;13.486;2024-03-07T02:47:12;102309.22;;;6.79;94.05
9695;BME280;4690;52.422;13.486;2024-03-07T02:49:38;102311.56;;;6.73;94.49
9695;BME280;4690;52.422;13.486;2024-03-07T02:52:04;102309.88;;;6.81;93.98
9695;BME280;4690;52.422;13.486;2024-03-07T02:54:33;102308.28;;;6.70;93.69
9695;BME280;4690;52.422;13.486;2024-03-07T02:56:59;102309.44;;;6.59;93.94
9695;BME280;4690;52.422;13.486;2024-03-07T02:59:25;102305.22;;;6.65;94.02
9695;BME280;4690;52.422;13.486;2024-03-07T03:01:51;102311.34;;;6.67;93.48
9695;BME280;4690;52.422;13.486;2024-03-07T03:04:17;102318.63;;;6.58;93.56
9695;BME280;4690;52.422;13.486;2024-03-07T03:06:43;102308.44;;;6.60;93.44
9695;BME280;4690;52.422;13.486;2024-03-07T03:09:09;102312.00;;;6.61;93.85
9695;BME280;4690;52.422;13.486;2024-03-07T03:11:44;102310.63;;;6.57;93.49
9695;BME280;4690;52.422;13.486;2024-03-07T03:14:09;102312.31;;;6.58;93.55
9695;BME280;4690;52.422;13.486;2024-03-07T03:16:36;102308.06;;;6.55;93.84
9695;BME280;4690;52.422;13.486;2024-03-07T03:19:02;102314.47;;;6.46;93.57
9695;BME280;4690;52.422;13.486;2024-03-07T03:21:27;102320.88;;;6.37;93.57
9695;BME280;4690;52.422;13.486;2024-03-07T03:23:53;102323.94;;;6.34;94.63
9695;BME280;4690;52.422;13.486;2024-03-07T03:26:20;102327.84;;;6.31;94.11
9695;BME280;4690;52.422;13.486;2024-03-07T03:28:47;102316.81;;;6.15;95.14
9695;BME280;4690;52.422;13.486;2024-03-07T03:31:13;102327.38;;;6.18;95.01
9695;BME280;4690;52.422;13.486;2024-03-07T03:33:40;102333.69;;;6.18;95.05
9695;BME280;4690;52.422;13.486;2024-03-07T03:36:07;102323.25;;;6.14;94.72
9695;BME280;4690;52.422;13.486;2024-03-07T03:38:33;102322.09;;;6.16;94.40
9695;BME280;4690;52.422;13.486;2024-03-07T03:40:58;102334.84;;;6.16;94.41
9695;BME280;4690;52.422;13.486;2024-03-07T03:43:24;102334.38;;;6.20;94.21
9695;BME280;4690;52.422;13.486;2024-03-07T03:45:50;102331.97;;;6.17;94.09
9695;BME280;4690;52.422;13.486;2024-03-07T03:48:15;102336.00;;;6.13;93.90
9695;BME280;4690;52.422;13.486;2024-03-07T03:50:41;102339.22;;;6.09;93.68
9695;BME280;4690;52.422;13.486;2024-03-07T03:53:07;102339.31;;;5.99;94.08
9695;BME280;4690;52.422;13.486;2024-03-07T03:55:33;102337.94;;;5.95;94.13
9695;BME280;4690;52.422;13.486;2024-03-07T03:57:59;102346.28;;;5.83;94.18
9695;BME280;4690;52.422;13.486;2024-03-07T04:00:25;102337.44;;;5.81;94.29
9695;BME280;4690;52.422;13.486;2024-03-07T04:02:51;102337.56;;;5.80;94.77
9695;BME280;4690;52.422;13.486;2024-03-07T04:05:19;102334.72;;;5.81;94.32
9695;BME280;4690;52.422;13.486;2024-03-07T04:07:45;102344.22;;;5.77;94.44
9695;BME280;4690;52.422;13.486;2024-03-07T04:10:12;102352.13;;;5.71;93.92
9695;BME280;4690;52.422;13.486;2024-03-07T04:12:41;102350.72;;;5.67;94.32
9695;BME280;4690;52.422;13.486;2024-03-07T04:15:16;102347.75;;;5.60;93.99
9695;BME280;4690;52.422;13.486;2024-03-07T04:17:42;102347.75;;;5.60;94.69
9695;BME280;4690;52.422;13.486;2024-03-07T04:20:09;102344.19;;;5.59;94.38
9695;BME280;4690;52.422;13.486;2024-03-07T04:22:39;102346.50;;;5.54;93.77
9695;BME280;4690;52.422;13.486;2024-03-07T04:25:06;102346.41;;;5.46;94.17
9695;BME280;4690;52.422;13.486;2024-03-07T04:27:33;102354.22;;;5.41;94.27
9695;BME280;4690;52.422;13.486;2024-03-07T04:30:03;102349.94;;;5.38;93.46
9695;BME280;4690;52.422;13.486;2024-03-07T04:32:30;102353.41;;;5.31;94.28
9695;BME280;4690;52.422;13.486;2024-03-07T04:34:56;102347.25;;;5.29;94.36
9695;BME280;4690;52.422;13.486;2024-03-07T04:37:26;102343.16;;;5.25;93.96
9695;BME280;4690;52.422;13.486;2024-03-07T04:39:55;102341.28;;;5.25;94.60
9695;BME280;4690;52.422;13.486;2024-03-07T04:42:21;102344.06;;;5.15;94.34
9695;BME280;4690;52.422;13.486;2024-03-07T04:44:46;102344.81;;;5.08;94.64
9695;BME280;4690;52.422;13.486;2024-03-07T04:47:12;102345.56;;;5.00;94.44
9695;BME280;4690;52.422;13.486;2024-03-07T04:49:38;102347.97;;;5.03;94.44
9695;BME280;4690;52.422;13.486;2024-03-07T04:52:06;102346.88;;;4.96;95.07
9695;BME280;4690;52.422;13.486;2024-03-07T04:54:32;102356.00;;;4.95;94.99
9695;BME280;4690;52.422;13.486;2024-03-07T04:56:57;102348.78;;;4.86;95.51
9695;BME280;4690;52.422;13.486;2024-03-07T04:59:24;102355.47;;;4.91;94.70
9695;BME280;4690;52.422;13.486;2024-03-07T05:01:50;102356.22;;;4.84;95.34
9695;BME280;4690;52.422;13.486;2024-03-07T05:04:17;102356.09;;;4.76;95.05
9695;BME280;4690;52.422;13.486;2024-03-07T05:06:44;102359.41;;;4.69;95.41
9695;BME280;4690;52.422;13.486;2024-03-07T05:09:13;102367.00;;;4.66;95.83
9695;BME280;4690;52.422;13.486;2024-03-07T05:11:49;102364.84;;;4.69;95.98
9695;BME280;4690;52.422;13.486;2024-03-07T05:14:17;102365.59;;;4.62;95.54
9695;BME280;4690;52.422;13.486;2024-03-07T05:16:44;102360.56;;;4.67;95.56
9695;BME280;4690;52.422;13.486;2024-03-07T05:19:09;102370.16;;;4.61;95.23
9695;BME280;4690;52.422;13.486;2024-03-07T05:21:35;102375.44;;;4.63;95.63
9695;BME280;4690;52.422;13.486;2024-03-07T05:24:07;102371.88;;;4.62;95.21
9695;BME280;4690;52.422;13.486;2024-03-07T05:26:37;102378.91;;;4.55;95.38
9695;BME280;4690;52.422;13.486;2024-03-07T05:29:08;102373.47;;;4.55;95.27
9695;BME280;4690;52.422;13.486;2024-03-07T05:31:36;102373.16;;;4.58;95.10
9695;BME280;4690;52.422;13.486;2024-03-07T05:34:04;102376.00;;;4.66;95.38
9695;BME280;4690;52.422;13.486;2024-03-07T05:36:34;102382.75;;;4.62;94.98
9695;BME280;4690;52.422;13.486;2024-03-07T05:39:01;102380.47;;;4.58;93.92
9695;BME280;4690;52.422;13.486;2024-03-07T05:41:28;102384.91;;;4.49;94.74
9695;BME280;4690;52.422;13.486;2024-03-07T05:43:55;102389.34;;;4.50;94.89
9695;BME280;4690;52.422;13.486;2024-03-07T05:46:23;102387.06;;;4.45;95.27
9695;BME280;4690;52.422;13.486;2024-03-07T05:48:48;102394.38;;;4.35;95.17
9695;BME280;4690;52.422;13.486;2024-03-07T05:51:18;102394.38;;;4.35;95.84
9695;BME280;4690;52.422;13.486;2024-03-07T05:53:44;102399.50;;;4.38;95.98
9695;BME280;4690;52.422;13.486;2024-03-07T05:56:09;102393.34;;;4.46;95.95
9695;BME280;4690;52.422;13.486;2024-03-07T05:58:35;102393.66;;;4.33;95.52
9695;BME280;4690;52.422;13.486;2024-03-07T06:01:01;102394.94;;;4.29;95.05
9695;BME280;4690;52.422;13.486;2024-03-07T06:03:27;102394.53;;;4.24;95.60
9695;BME280;4690;52.422;13.486;2024-03-07T06:05:52;102399.53;;;4.29;96.14
9695;BME280;4690;52.422;13.486;2024-03-07T06:08:20;102397.94;;;4.36;96.02
9695;BME280;4690;52.422;13.486;2024-03-07T06:10:47;102403.50;;;4.24;95.40
9695;BME280;4690;52.422;13.486;2024-03-07T06:13:16;102398.69;;;4.18;95.91
9695;BME280;4690;52.422;13.486;2024-03-07T06:15:46;102406.53;;;4.21;96.09
9695;BME280;4690;52.422;13.486;2024-03-07T06:18:13;102405.25;;;4.25;94.96
9695;BME280;4690;52.422;13.486;2024-03-07T06:20:43;102408.53;;;4.29;94.17
9695;BME280;4690;52.422;13.486;2024-03-07T06:23:10;102410.34;;;4.38;94.21
9695;BME280;4690;52.422;13.486;2024-03-07T06:25:39;102409.94;;;4.43;93.35
9695;BME280;4690;52.422;13.486;2024-03-07T06:28:13;102400.91;;;4.62;93.60
9695;BME280;4690;52.422;13.486;2024-03-07T06:30:44;102399.78;;;4.92;91.83
9695;BME280;4690;52.422;13.486;2024-03-07T06:33:11;102398.34;;;5.25;90.70
9695;BME280;4690;52.422;13.486;2024-03-07T06:35:38;102408.56;;;5.41;89.23
9695;BME280;4690;52.422;13.486;2024-03-07T06:38:06;102401.38;;;5.68;88.17
9695;BME280;4690;52.422;13.486;2024-03-07T06:40:40;102412.34;;;5.76;86.10
9695;BME280;4690;52.422;13.486;2024-03-07T06:43:07;102417.97;;;6.10;85.34
9695;BME280;4690;52.422;13.486;2024-03-07T06:45:39;102411.31;;;6.22;83.48
9695;BME280;4690;52.422;13.486;2024-03-07T06:48:07;102415.97;;;6.12;81.89
9695;BME280;4690;52.422;13.486;2024-03-07T06:50:35;102419.94;;;6.00;82.91
9695;BME280;4690;52.422;13.486;2024-03-07T06:53:02;102423.50;;;6.18;81.51
9695;BME280;4690;52.422;13.486;2024-03-07T06:55:27;102413.34;;;6.46;79.69
9695;BME280;4690;52.422;13.486;2024-03-07T06:57:54;102418.28;;;6.43;79.99
9695;BME280;4690;52.422;13.486;2024-03-07T07:00:20;102422.72;;;6.70;79.34
9695;BME280;4690;52.422;13.486;2024-03-07T07:02:47;102421.31;;;6.92;75.49
9695;BME280;4690;52.422;13.486;2024-03-07T07:05:14;102425.16;;;7.07;75.08
9695;BME280;4690;52.422;13.486;2024-03-07T07:07:49;102428.91;;;7.49;73.19
9695;BME280;4690;52.422;13.486;2024-03-07T07:10:16;102422.22;;;7.85;71.56
9695;BME280;4690;52.422;13.486;2024-03-07T07:12:47;102429.28;;;8.45;69.91
9695;BME280;4690;52.422;13.486;2024-03-07T07:15:18;102419.31;;;8.93;66.77
9695;BME280;4690;52.422;13.486;2024-03-07T07:17:44;102425.66;;;9.33;65.27
9695;BME280;4690;52.422;13.486;2024-03-07T07:20:13;102428.22;;;9.74;63.14
9695;BME280;4690;52.422;13.486;2024-03-07T07:22:47;102424.16;;;9.23;62.83
9695;BME280;4690;52.422;13.486;2024-03-07T07:25:14;102434.22;;;9.30;61.19
9695;BME280;4690;52.422;13.486;2024-03-07T07:27:51;102423.22;;;8.99;62.48
9695;BME280;4690;52.422;13.486;2024-03-07T07:30:22;102425.91;;;9.15;62.42
9695;BME280;4690;52.422;13.486;2024-03-07T07:32:50;102426.88;;;9.62;61.10
9695;BME280;4690;52.422;13.486;2024-03-07T07:35:17;102429.72;;;9.77;60.08
9695;BME280;4690;52.422;13.486;2024-03-07T07:37:47;102425.25;;;10.07;57.64
9695;BME280;4690;52.422;13.486;2024-03-07T07:40:19;102423.06;;;10.25;56.61
9695;BME280;4690;52.422;13.486;2024-03-07T07:42:45;102424.97;;;10.25;56.88
9695;BME280;4690;52.422;13.486;2024-03-07T07:45:14;102426.34;;;10.21;55.94
9695;BME280;4690;52.422;13.486;2024-03-07T07:47:45;102428.84;;;8.97;58.54
9695;BME280;4690;52.422;13.486;2024-03-07T07:50:13;102427.28;;;9.11;58.96
9695;BME280;4690;52.422;13.486;2024-03-07T07:52:42;102434.22;;;8.66;59.76
9695;BME280;4690;52.422;13.486;2024-03-07T07:55:09;102432.31;;;9.39;58.82
9695;BME280;4690;52.422;13.486;2024-03-07T07:57:45;102427.00;;;9.37;58.77
9695;BME280;4690;52.422;13.486;2024-03-07T08:00:14;102426.34;;;9.35;58.75
9695;BME280;4690;52.422;13.486;2024-03-07T08:03:07;102425.25;;;9.05;58.56
9695;BME280;4690;52.422;13.486;2024-03-07T08:05:36;102426.69;;;8.85;59.83
9695;BME280;4690;52.422;13.486;2024-03-07T08:08:07;102427.38;;;8.70;59.50
9695;BME280;4690;52.422;13.486;2024-03-07T08:10:36;102426.69;;;8.77;61.09
9695;BME280;4690;52.422;13.486;2024-03-07T08:13:03;102429.69;;;9.06;59.26
9695;BME280;4690;52.422;13.486;2024-03-07T08:15:31;102431.13;;;8.69;60.84
9695;BME280;4690;52.422;13.486;2024-03-07T08:17:58;102424.78;;;8.85;60.03
9695;BME280;4690;52.422;13.486;2024-03-07T08:20:26;102433.22;;;8.43;60.60
9695;BME280;4690;52.422;13.486;2024-03-07T08:22:54;102427.56;;;8.52;61.47
9695;BME280;4690;52.422;13.486;2024-03-07T08:25:26;102425.91;;;9.15;59.72
9695;BME280;4690;52.422;13.486;2024-03-07T08:27:57;102437.91;;;9.46;57.17
9695;BME280;4690;52.422;13.486;2024-03-07T08:30:24;102428.41;;;9.96;56.51
9695;BME280;4690;52.422;13.486;2024-03-07T08:32:55;102431.81;;;10.21;55.17
9695;BME280;4690;52.422;13.486;2024-03-07T08:35:22;102421.38;;;10.47;52.90
9695;BME280;4690;52.422;13.486;2024-03-07T08:37:52;102428.19;;;10.66;52.60
9695;BME280;4690;52.422;13.486;2024-03-07T08:40:27;102427.50;;;11.17;51.59
9695;BME280;4690;52.422;13.486;2024-03-07T08:42:57;102431.84;;;11.11;49.22
9695;BME280;4690;52.422;13.486;2024-03-07T08:45:23;102430.91;;;10.05;51.72
9695;BME280;4690;52.422;13.486;2024-03-07T08:47:52;102428.25;;;10.43;52.11
9695;BME280;4690;52.422;13.486;2024-03-07T08:50:20;102428.88;;;10.30;52.92
9695;BME280;4690;52.422;13.486;2024-03-07T08:52:48;102432.28;;;10.70;50.11
9695;BME280;4690;52.422;13.486;2024-03-07T08:55:16;102428.72;;;10.85;50.62
9695;BME280;4690;52.422;13.486;2024-03-07T08:57:44;102431.69;;;11.13;50.47
9695;BME280;4690;52.422;13.486;2024-03-07T09:00:15;102427.13;;;10.90;50.94
9695;BME280;4690;52.422;13.486;2024-03-07T09:02:56;102431.38;;;11.08;48.51
9695;BME280;4690;52.422;13.486;2024-03-07T09:05:26;102430.25;;;11.47;48.46
9695;BME280;4690;52.422;13.486;2024-03-07T09:07:54;102426.09;;;12.30;46.42
9695;BME280;4690;52.422;13.486;2024-03-07T09:10:20;102433.63;;;11.49;46.91
9695;BME280;4690;52.422;13.486;2024-03-07T09:12:50;102423.88;;;11.82;46.60
9695;BME280;4690;52.422;13.486;2024-03-07T09:15:17;102429.97;;;12.36;44.24
9695;BME280;4690;52.422;13.486;2024-03-07T09:17:44;102416.16;;;12.50;43.14
9695;BME280;4690;52.422;13.486;2024-03-07T09:20:11;102418.84;;;12.72;43.06
9695;BME280;4690;52.422;13.486;2024-03-07T09:22:44;102423.53;;;12.50;42.84
9695;BME280;4690;52.422;13.486;2024-03-07T09:25:10;102424.66;;;12.55;42.75
9695;BME280;4690;52.422;13.486;2024-03-07T09:27:36;102421.97;;;11.61;45.06
9695;BME280;4690;52.422;13.486;2024-03-07T09:30:04;102424.75;;;11.47;42.96
9695;BME280;4690;52.422;13.486;2024-03-07T09:32:30;102435.44;;;11.12;43.58
9695;BME280;4690;52.422;13.486;2024-03-07T09:34:58;102432.22;;;10.93;44.24
9695;BME280;4690;52.422;13.486;2024-03-07T09:37:25;102433.91;;;10.65;44.54
9695;BME280;4690;52.422;13.486;2024-03-07T09:39:51;102422.00;;;10.87;44.98
9695;BME280;4690;52.422;13.486;2024-03-07T09:42:18;102421.78;;;10.74;44.06
9695;BME280;4690;52.422;13.486;2024-03-07T09:44:45;102417.41;;;10.27;46.37
9695;BME280;4690;52.422;13.486;2024-03-07T09:47:13;102421.31;;;10.32;45.75
9695;BME280;4690;52.422;13.486;2024-03-07T09:49:39;102423.09;;;10.63;46.07
9695;BME280;4690;52.422;13.486;2024-03-07T09:52:07;102422.78;;;10.58;45.39
9695;BME280;4690;52.422;13.486;2024-03-07T09:54:38;102419.66;;;10.46;45.01
9695;BME280;4690;52.422;13.486;2024-03-07T09:57:06;102411.59;;;10.22;46.35
9695;BME280;4690;52.422;13.486;2024-03-07T09:59:35;102413.66;;;10.28;43.94
9695;BME280;4690;52.422;13.486;2024-03-07T10:02:06;102411.84;;;9.89;46.58
9695;BME280;4690;52.422;13.486;2024-03-07T10:04:43;102405.91;;;10.08;45.85
9695;BME280;4690;52.422;13.486;2024-03-07T10:07:15;102402.34;;;9.77;45.73
9695;BME280;4690;52.422;13.486;2024-03-07T10:09:42;102408.09;;;9.59;47.09
9695;BME280;4690;52.422;13.486;2024-03-07T10:12:09;102406.81;;;10.01;46.06
9695;BME280;4690;52.422;13.486;2024-03-07T10:14:51;102407.13;;;10.06;44.14
9695;BME280;4690;52.422;13.486;2024-03-07T10:17:19;102391.00;;;10.11;45.23
9695;BME280;4690;52.422;13.486;2024-03-07T10:19:48;102406.53;;;9.64;45.22
9695;BME280;4690;52.422;13.486;2024-03-07T10:22:18;102402.66;;;9.82;46.62
9695;BME280;4690;52.422;13.486;2024-03-07T10:24:53;102403.34;;;10.07;45.45
9695;BME280;4690;52.422;13.486;2024-03-07T10:27:20;102394.00;;;10.16;45.26
9695;BME280;4690;52.422;13.486;2024-03-07T10:29:52;102393.28;;;9.76;47.52
9695;BME280;4690;52.422;13.486;2024-03-07T10:32:22;102388.84;;;9.44;46.13
9695;BME280;4690;52.422;13.486;2024-03-07T10:34:53;102385.56;;;9.49;46.20
9695;BME280;4690;52.422;13.486;2024-03-07T10:37:20;102394.81;;;9.79;45.72
9695;BME280;4690;52.422;13.486;2024-03-07T10:39:49;102382.16;;;9.78;45.51
9695;BME280;4690;52.422;13.486;2024-03-07T10:42:17;102383.16;;;10.08;46.78
9695;BME280;4690;52.422;13.486;2024-03-07T10:44:47;102377.50;;;10.24;45.52
9695;BME280;4690;52.422;13.486;2024-03-07T10:47:20;102376.84;;;10.22;45.54
9695;BME280;4690;52.422;13.486;2024-03-07T10:50:17;102375.47;;;10.03;45.66
9695;BME280;4690;52.422;13.486;2024-03-07T10:59:25;102374.66;;;10.41;45.90
9695;BME280;4690;52.422;13.486;2024-03-07T11:02:27;102373.72;;;10.48;43.76
9695;BME280;4690;52.422;13.486;2024-03-07T11:04:54;102373.75;;;10.63;44.17
9695;BME280;4690;52.422;13.486;2024-03-07T11:07:23;102370.75;;;11.03;43.16
9695;BME280;4690;52.422;13.486;2024-03-07T11:09:53;102366.59;;;11.43;42.04
9695;BME280;4690;52.422;13.486;2024-03-07T11:12:24;102367.00;;;11.76;39.85
9695;BME280;4690;52.422;13.486;2024-03-07T11:14:55;102362.84;;;12.02;39.85
9695;BME280;4690;52.422;13.486;2024-03-07T11:17:22;102361.78;;;11.81;40.09
9695;BME280;4690;52.422;13.486;2024-03-07T11:19:49;102348.81;;;12.68;37.90
9695;BME280;4690;52.422;13.486;2024-03-07T11:22:31;102365.94;;;12.98;37.01
9695;BME280;4690;52.422;13.486;2024-03-07T11:25:02;102352.28;;;11.84;37.62
9695;BME280;4690;52.422;13.486;2024-03-07T11:27:59;102353.38;;;11.68;38.57
9695;BME280;4690;52.422;13.486;2024-03-07T11:30:25;102350.72;;;11.75;38.56
9695;BME280;4690;52.422;13.486;2024-03-07T11:32:53;102362.09;;;11.35;39.49
9695;BME280;4690;52.422;13.486;2024-03-07T11:35:21;102345.13;;;11.47;39.80
9695;BME280;4690;52.422;13.486;2024-03-07T11:37:59;102346.97;;;11.25;39.74
9695;BME280;4690;52.422;13.486;2024-03-07T11:42:52;102348.00;;;11.38;39.49
9695;BME280;4690;52.422;13.486;2024-03-07T11:45:20;102337.84;;;11.75;38.37
9695;BME280;4690;52.422;13.486;2024-03-07T11:47:55;102334.50;;;11.80;39.11
9695;BME280;4690;52.422;13.486;2024-03-07T11:50:38;102343.69;;;11.87;39.71
9695;BME280;4690;52.422;13.486;2024-03-07T11:53:05;102334.44;;;11.73;39.63
9695;BME280;4690;52.422;13.486;2024-03-07T11:55:36;102337.25;;;12.51;38.01
9695;BME280;4690;52.422;13.486;2024-03-07T11:58:16;102324.72;;;12.76;37.76
9695;BME280;4690;52.422;13.486;2024-03-07T12:00:45;102329.53;;;13.02;36.96
9695;BME280;4690;52.422;13.486;2024-03-07T12:03:12;102330.03;;;12.78;35.82
9695;BME280;4690;52.422;13.486;2024-03-07T12:05:51;102322.44;;;12.52;34.35
9695;BME280;4690;52.422;13.486;2024-03-07T12:08:19;102320.47;;;12.11;35.42
9695;BME280;4690;52.422;13.486;2024-03-07T12:10:48;102311.22;;;11.76;36.07
9695;BME280;4690;52.422;13.486;2024-03-07T12:13:17;102308.09;;;12.00;37.60
9695;BME280;4690;52.422;13.486;2024-03-07T12:15:46;102306.09;;;12.44;37.69
9695;BME280;4690;52.422;13.486;2024-03-07T12:18:12;102299.06;;;13.04;36.69
9695;BME280;4690;52.422;13.486;2024-03-07T12:20:44;102299.06;;;13.11;36.38
9695;BME280;4690;52.422;13.486;2024-03-07T12:23:21;102300.16;;;12.40;36.41
9695;BME280;4690;52.422;13.486;2024-03-07T12:25:47;102291.59;;;12.56;35.29
9695;BME280;4690;52.422;13.486;2024-03-07T12:28:14;102290.94;;;12.89;32.91
9695;BME280;4690;52.422;13.486;2024-03-07T12:33:15;102289.69;;;12.22;32.68
9695;BME280;4690;52.422;13.486;2024-03-07T12:35:43;102301.47;;;12.16;34.16
9695;BME280;4690;52.422;13.486;2024-03-07T12:38:10;102287.41;;;12.32;34.91
9695;BME280;4690;52.422;13.486;2024-03-07T12:40:39;102284.94;;;12.09;34.02
9695;BME280;4690;52.422;13.486;2024-03-07T12:43:19;102294.94;;;12.17;35.29
9695;BME280;4690;52.422;13.486;2024-03-07T12:45:52;102293.94;;;11.97;35.13
9695;BME280;4690;52.422;13.486;2024-03-07T12:48:19;102276.50;;;11.68;35.46
9695;BME280;4690;52.422;13.486;2024-03-07T12:50:48;102278.06;;;11.99;36.01
9695;BME280;4690;52.422;13.486;2024-03-07T12:53:23;102274.84;;;12.17;33.98
9695;BME280;4690;52.422;13.486;2024-03-07T12:55:51;102271.31;;;12.57;31.27
9695;BME280;4690;52.422;13.486;2024-03-07T12:58:20;102285.78;;;12.10;33.51
9695;BME280;4690;52.422;13.486;2024-03-07T13:00:52;102278.00;;;12.42;33.50
9695;BME280;4690;52.422;13.486;2024-03-07T13:03:18;102264.16;;;12.28;32.04
9695;BME280;4690;52.422;13.486;2024-03-07T13:05:44;102272.13;;;12.51;30.33
9695;BME280;4690;52.422;13.486;2024-03-07T13:08:10;102272.69;;;12.40;30.60
9695;BME280;4690;52.422;13.486;2024-03-07T13:10:42;102271.84;;;12.40;32.45
9695;BME280;4690;52.422;13.486;2024-03-07T13:13:08;102270.63;;;12.21;33.64
9695;BME280;4690;52.422;13.486;2024-03-07T13:15:41;102262.38;;;12.21;33.02
9695;BME280;4690;52.422;13.486;2024-03-07T13:18:08;102267.31;;;12.25;31.92
9695;BME280;4690;52.422;13.486;2024-03-07T13:20:35;102271.69;;;11.92;32.60
9695;BME280;4690;52.422;13.486;2024-03-07T13:23:02;102269.88;;;11.84;33.25
9695;BME280;4690;52.422;13.486;2024-03-07T13:25:30;102267.56;;;12.02;33.61
9695;BME280;4690;52.422;13.486;2024-03-07T13:28:08;102273.09;;;12.09;34.37
9695;BME280;4690;52.422;13.486;2024-03-07T13:30:40;102269.19;;;11.75;34.37
9695;BME280;4690;52.422;13.486;2024-03-07T13:33:06;102272.44;;;11.64;34.33